08NC weather

Public forecast

Using degrees Fahrenheit for public forecast. Weather courtesy of forecast.io.

Closest aviation weather report (METAR) to Whiteheart Farm Airport

Closest report is Smith Reynolds Airport, 12.5 nm (23.1 km) ENE. Retrieved 2020/08/13 01:54 UTC (30 minutes ago):

KINT 130154Z AUTO 01003KT 10SM CLR 23/23 A3007 RMK AO2 SLP171 T02330233

Closest aviation forecast (TAF) to Whiteheart Farm Airport

Closest forecast is Smith Reynolds Airport, 12.5 nm (23.1 km) ENE. Retrieved 2020-08-13 00:24 UTC (2 hours ago):

TAF KINT 122320Z 1300/1324 VRB05KT 5SM -SHRA BKN035 FM130200 VRB05KT P6SM SCT035 BKN250 FM130900 04004KT 3SM BR SCT005 BKN250 FM131400 04005KT P6SM SCT015 SCT035 FM131800 07005KT P6SM VCSH BKN050